createdAt,value
2018-10-03T00:01:47.588Z,100219.27
2018-10-03T00:04:16.522Z,100214.20
2018-10-03T00:06:45.367Z,100214.35
2018-10-03T00:09:14.272Z,100229.28
2018-10-03T00:11:43.388Z,100223.23
2018-10-03T00:14:12.690Z,100223.84
2018-10-03T00:16:42.001Z,100225.18
2018-10-03T00:19:10.841Z,100242.86
2018-10-03T00:21:39.748Z,100240.67
2018-10-03T00:24:08.558Z,100246.87
2018-10-03T00:26:38.508Z,100243.73
2018-10-03T00:29:07.376Z,100248.77
2018-10-03T00:31:36.208Z,100240.32
2018-10-03T00:34:05.376Z,100235.97
2018-10-03T00:36:34.414Z,100246.36
2018-10-03T00:39:03.351Z,100242.46
2018-10-03T00:41:32.149Z,100244.19
2018-10-03T00:44:01.048Z,100233.59
2018-10-03T00:46:29.819Z,100250.69
2018-10-03T00:48:58.731Z,100247.73
2018-10-03T00:51:27.663Z,100256.27
2018-10-03T00:53:56.582Z,100235.59
2018-10-03T00:56:25.338Z,100251.56
2018-10-03T00:58:54.207Z,100257.10
2018-10-03T01:01:22.929Z,100245.21
2018-10-03T01:03:51.856Z,100267.83
2018-10-03T01:06:20.701Z,100268.77
2018-10-03T01:08:49.559Z,100259.64
2018-10-03T01:11:18.402Z,100238.62
2018-10-03T01:13:47.435Z,100269.46
2018-10-03T01:16:16.246Z,100264.39
2018-10-03T01:18:45.150Z,100263.52
2018-10-03T01:21:14.654Z,100273.42
2018-10-03T01:23:43.593Z,100254.52
2018-10-03T01:26:12.724Z,100274.66
2018-10-03T01:28:41.589Z,100278.74
2018-10-03T01:31:10.504Z,100277.08
2018-10-03T01:33:39.359Z,100282.99
2018-10-03T01:36:08.303Z,100271.69
2018-10-03T01:38:37.155Z,100284.34
2018-10-03T01:41:06.206Z,100298.84
2018-10-03T01:43:34.969Z,100292.09
2018-10-03T01:46:03.811Z,100294.76
2018-10-03T01:48:32.921Z,100303.47
2018-10-03T01:51:01.852Z,100300.56
2018-10-03T01:53:30.574Z,100305.14
2018-10-03T01:55:59.475Z,100312.27
2018-10-03T01:58:28.269Z,100316.59
2018-10-03T02:00:57.067Z,100311.89
2018-10-03T02:03:26.385Z,100316.97
2018-10-03T02:05:55.235Z,100311.04
2018-10-03T02:08:24.053Z,100316.49
2018-10-03T02:10:52.896Z,100318.41
2018-10-03T02:13:21.783Z,100313.97
2018-10-03T02:15:50.602Z,100325.02
2018-10-03T02:18:19.482Z,100299.05
2018-10-03T02:20:48.391Z,100325.75
2018-10-03T02:23:17.263Z,100324.05
2018-10-03T02:25:46.194Z,100336.67
2018-10-03T02:28:15.308Z,100343.44
2018-10-03T02:30:44.280Z,100342.56
2018-10-03T02:33:13.059Z,100337.78
2018-10-03T02:35:41.894Z,100331.51
2018-10-03T02:38:10.691Z,100335.35
2018-10-03T02:40:39.891Z,100338.02
2018-10-03T02:43:08.802Z,100341.39
2018-10-03T02:45:37.582Z,100330.30
2018-10-03T02:48:06.495Z,100328.52
2018-10-03T02:50:35.322Z,100332.23
2018-10-03T02:53:04.180Z,100325.75
2018-10-03T02:55:32.947Z,100333.81
2018-10-03T02:58:01.782Z,100317.19
2018-10-03T03:00:30.567Z,100335.70
2018-10-03T03:02:59.392Z,100338.59
2018-10-03T03:05:28.253Z,100334.84
2018-10-03T03:07:57.052Z,100345.69
2018-10-03T03:10:25.876Z,100329.69
2018-10-03T03:12:54.714Z,100341.24
2018-10-03T03:15:23.572Z,100349.05
2018-10-03T03:17:52.356Z,100349.78
2018-10-03T03:20:21.245Z,100358.19
2018-10-03T03:22:50.491Z,100349.14
2018-10-03T03:25:19.344Z,100342.77
2018-10-03T03:27:48.256Z,100345.42
2018-10-03T03:30:17.122Z,100339.88
2018-10-03T03:32:45.936Z,100351.06
2018-10-03T03:35:15.233Z,100348.80
2018-10-03T03:37:44.087Z,100355.41
2018-10-03T03:40:13.038Z,100351.92
2018-10-03T03:42:41.826Z,100348.45
2018-10-03T03:45:10.697Z,100353.02
2018-10-03T03:47:39.575Z,100355.67
2018-10-03T03:50:08.323Z,100352.30
2018-10-03T03:52:37.431Z,100353.99
2018-10-03T03:55:06.716Z,100355.66
2018-10-03T03:57:35.499Z,100351.23
2018-10-03T04:00:04.328Z,100353.41
2018-10-03T04:02:33.255Z,100362.78
2018-10-03T04:05:02.046Z,100358.09
2018-10-03T04:07:30.890Z,100349.89
2018-10-03T04:09:59.729Z,100355.07
2018-10-03T04:12:28.578Z,100348.70
2018-10-03T04:14:57.616Z,100348.70
2018-10-03T04:17:26.800Z,100345.34
2018-10-03T04:19:55.837Z,100347.76
2018-10-03T04:22:26.756Z,100350.62
2018-10-03T04:24:55.655Z,100351.94
2018-10-03T04:27:24.546Z,100356.28
2018-10-03T04:29:54.194Z,100354.71
2018-10-03T04:32:23.036Z,100356.52
2018-10-03T04:34:51.874Z,100358.69
2018-10-03T04:37:20.813Z,100361.08
2018-10-03T04:39:49.646Z,100365.42
2018-10-03T04:42:18.529Z,100368.30
2018-10-03T04:44:47.368Z,100372.27
2018-10-03T04:47:16.208Z,100377.92
2018-10-03T04:49:45.030Z,100383.34
2018-10-03T04:52:13.855Z,100379.47
2018-10-03T04:54:43.060Z,100373.34
2018-10-03T04:57:11.919Z,100390.28
2018-10-03T04:59:42.772Z,100383.80
2018-10-03T05:02:11.673Z,100381.02
2018-10-03T05:04:40.496Z,100384.87
2018-10-03T05:07:09.723Z,100395.58
2018-10-03T05:09:38.748Z,100387.41
2018-10-03T05:12:07.735Z,100391.73
2018-10-03T05:14:36.595Z,100382.47
2018-10-03T05:17:05.335Z,100361.69
2018-10-03T05:19:34.108Z,100387.89
2018-10-03T05:22:02.927Z,100389.18
2018-10-03T05:24:31.763Z,100391.83
2018-10-03T05:27:00.513Z,100388.58
2018-10-03T05:29:30.040Z,100396.77
2018-10-03T05:31:58.930Z,100408.05
2018-10-03T05:34:27.743Z,100413.46
2018-10-03T05:36:56.639Z,100413.47
2018-10-03T05:39:25.478Z,100424.05
2018-10-03T05:41:54.351Z,100410.56
2018-10-03T05:44:23.162Z,100418.16
2018-10-03T05:46:51.954Z,100425.84
2018-10-03T05:49:20.811Z,100399.96
2018-10-03T05:51:49.615Z,100439.89
2018-10-03T05:54:18.428Z,100436.91
2018-10-03T05:56:47.255Z,100436.90
2018-10-03T05:59:16.059Z,100435.35
2018-10-03T06:01:44.959Z,100439.70
2018-10-03T06:04:13.829Z,100436.55
2018-10-03T06:06:42.664Z,100437.14
2018-10-03T06:09:13.087Z,100429.31
2018-10-03T06:11:43.058Z,100434.81
2018-10-03T06:14:12.417Z,100432.02
2018-10-03T06:16:41.411Z,100434.81
2018-10-03T06:19:10.298Z,100432.77
2018-10-03T06:21:39.155Z,100425.20
2018-10-03T06:24:08.045Z,100433.27
2018-10-03T06:26:36.844Z,100441.53
2018-10-03T06:29:05.840Z,100452.36
2018-10-03T06:31:34.796Z,100453.59
2018-10-03T06:34:03.748Z,100467.52
2018-10-03T06:36:33.235Z,100472.55
2018-10-03T06:39:02.249Z,100482.42
2018-10-03T06:41:31.172Z,100499.15
2018-10-03T06:44:00.064Z,100499.23
2018-10-03T06:46:28.890Z,100484.06
2018-10-03T06:48:57.881Z,100489.72
2018-10-03T06:51:26.803Z,100494.16
2018-10-03T06:53:55.652Z,100490.97
2018-10-03T06:56:24.765Z,100506.41
2018-10-03T06:58:53.623Z,100504.89
2018-10-03T07:01:22.602Z,100509.95
2018-10-03T07:03:51.454Z,100506.34
2018-10-03T07:06:20.737Z,100520.44
2018-10-03T07:08:49.787Z,100519.72
2018-10-03T07:11:18.624Z,100531.06
2018-10-03T07:13:47.475Z,100521.50
2018-10-03T07:16:16.517Z,100526.73
2018-10-03T07:18:45.722Z,100519.17
2018-10-03T07:21:14.822Z,100516.12
2018-10-03T07:23:43.783Z,100519.59
2018-10-03T07:26:12.746Z,100512.84
2018-10-03T07:28:41.586Z,100514.86
2018-10-03T07:31:10.827Z,100521.81
2018-10-03T07:33:39.704Z,100522.30
2018-10-03T07:36:08.709Z,100530.27
2018-10-03T07:38:37.688Z,100539.41
2018-10-03T07:41:06.702Z,100542.59
2018-10-03T07:43:35.550Z,100540.42
2018-10-03T07:46:04.456Z,100529.80
2018-10-03T07:48:33.354Z,100531.11
2018-10-03T07:51:03.471Z,100539.74
2018-10-03T07:53:32.710Z,100546.16
2018-10-03T07:56:02.792Z,100534.92
2018-10-03T07:58:31.969Z,100527.55
2018-10-03T08:01:00.841Z,100524.02
2018-10-03T08:03:29.774Z,100542.02
2018-10-03T08:05:59.043Z,100529.00
2018-10-03T08:08:28.500Z,100562.75
2018-10-03T08:10:59.382Z,100557.49
2018-10-03T08:13:34.094Z,100565.33
2018-10-03T08:16:03.121Z,100569.01
2018-10-03T08:18:32.008Z,100552.52
2018-10-03T08:21:01.177Z,100564.66
2018-10-03T08:23:38.117Z,100560.79
2018-10-03T08:26:16.076Z,100577.28
2018-10-03T08:28:46.313Z,100575.89
2018-10-03T08:31:15.204Z,100568.87
2018-10-03T08:33:44.150Z,100571.58
2018-10-03T08:36:12.995Z,100579.84
2018-10-03T08:38:41.927Z,100579.80
2018-10-03T08:41:10.686Z,100591.48
2018-10-03T08:43:39.541Z,100576.03
2018-10-03T08:46:08.474Z,100559.55
2018-10-03T08:48:37.420Z,100570.29
2018-10-03T08:51:06.379Z,100587.02
2018-10-03T08:53:35.243Z,100590.38
2018-10-03T08:56:04.162Z,100573.80
2018-10-03T08:58:33.136Z,100598.37
2018-10-03T09:01:01.994Z,100597.68
2018-10-03T09:03:30.755Z,100603.49
2018-10-03T09:05:59.528Z,100593.59
2018-10-03T09:08:28.372Z,100585.20
2018-10-03T09:10:57.263Z,100614.34
2018-10-03T09:13:27.675Z,100606.50
2018-10-03T09:16:02.302Z,100599.11
2018-10-03T09:18:31.158Z,100620.37
2018-10-03T09:21:00.038Z,100608.46
2018-10-03T09:23:28.880Z,100607.14
2018-10-03T09:25:57.850Z,100619.95
2018-10-03T09:31:17.643Z,100615.65
2018-10-03T09:33:46.595Z,100618.54
2018-10-03T09:36:15.512Z,100646.92
2018-10-03T09:38:44.243Z,100649.95
2018-10-03T09:41:13.040Z,100646.27
2018-10-03T09:43:42.255Z,100653.08
2018-10-03T09:46:11.420Z,100644.62
2018-10-03T09:48:40.271Z,100658.39
2018-10-03T09:51:09.152Z,100638.28
2018-10-03T09:53:37.941Z,100669.20
2018-10-03T09:56:06.873Z,100682.31
2018-10-03T09:58:35.624Z,100679.71
2018-10-03T10:01:09.839Z,100680.05
2018-10-03T10:03:38.576Z,100675.26
2018-10-03T10:06:07.472Z,100684.41
2018-10-03T10:08:36.638Z,100703.91
2018-10-03T10:11:05.730Z,100672.31
2018-10-03T10:13:34.607Z,100698.88
2018-10-03T10:16:03.422Z,100690.25
2018-10-03T10:18:32.279Z,100696.11
2018-10-03T10:21:01.115Z,100696.13
2018-10-03T10:23:29.990Z,100697.70
2018-10-03T10:25:58.836Z,100714.07
2018-10-03T10:28:27.804Z,100687.84
2018-10-03T10:30:56.583Z,100718.06
2018-10-03T10:33:26.208Z,100720.67
2018-10-03T10:35:55.133Z,100721.63
2018-10-03T10:38:24.022Z,100729.56
2018-10-03T10:40:52.951Z,100723.13
2018-10-03T10:43:21.878Z,100720.78
2018-10-03T10:45:51.415Z,100719.59
2018-10-03T10:48:20.606Z,100725.70
2018-10-03T10:50:49.684Z,100734.77
2018-10-03T10:53:18.623Z,100729.14
2018-10-03T10:55:47.484Z,100720.18
2018-10-03T10:58:16.482Z,100738.23
2018-10-03T11:00:45.436Z,100745.41
2018-10-03T11:03:14.552Z,100738.28
2018-10-03T11:05:43.504Z,100748.69
2018-10-03T11:08:12.390Z,100745.13
2018-10-03T11:10:41.313Z,100739.12
2018-10-03T11:13:10.482Z,100758.09
2018-10-03T11:15:39.849Z,100769.25
2018-10-03T11:18:08.864Z,100773.22
2018-10-03T11:20:37.864Z,100780.05
2018-10-03T11:23:06.748Z,100784.90
2018-10-03T11:25:35.781Z,100782.28
2018-10-03T11:28:04.631Z,100803.23
2018-10-03T11:30:33.908Z,100802.81
2018-10-03T11:33:02.805Z,100808.95
2018-10-03T11:35:31.845Z,100793.56
2018-10-03T11:38:01.388Z,100793.10
2018-10-03T11:40:30.278Z,100787.67
2018-10-03T11:42:59.268Z,100769.59
2018-10-03T11:45:28.021Z,100793.85
2018-10-03T11:47:56.957Z,100790.59
2018-10-03T11:50:25.860Z,100800.52
2018-10-03T11:52:54.744Z,100795.05
2018-10-03T11:55:23.613Z,100797.11
2018-10-03T11:57:52.459Z,100777.80
2018-10-03T12:00:21.297Z,100788.59
2018-10-03T12:02:50.421Z,100803.75
2018-10-03T12:05:19.280Z,100814.11
2018-10-03T12:07:48.204Z,100796.42
2018-10-03T12:10:17.171Z,100816.50
2018-10-03T12:12:46.228Z,100814.41
2018-10-03T12:15:15.141Z,100801.03
2018-10-03T12:17:44.087Z,100793.28
2018-10-03T12:20:12.998Z,100814.80
2018-10-03T12:22:41.862Z,100832.12
2018-10-03T12:25:10.752Z,100821.97
2018-10-03T12:27:39.669Z,100820.16
2018-10-03T12:30:08.606Z,100823.16
2018-10-03T12:32:37.680Z,100831.35
2018-10-03T12:35:06.899Z,100836.13
2018-10-03T12:37:35.793Z,100849.59
2018-10-03T12:40:04.755Z,100845.55
2018-10-03T12:42:34.223Z,100840.69
2018-10-03T12:45:03.196Z,100844.98
2018-10-03T12:47:32.028Z,100824.52
2018-10-03T12:50:01.128Z,100838.12
2018-10-03T12:52:30.015Z,100820.58
2018-10-03T12:54:58.822Z,100825.76
2018-10-03T12:57:28.457Z,100826.96
2018-10-03T12:59:57.468Z,100830.14
2018-10-03T13:02:26.573Z,100819.02
2018-10-03T13:04:55.725Z,100816.26
2018-10-03T13:07:24.538Z,100807.06
2018-10-03T13:09:53.449Z,100818.67
2018-10-03T13:12:22.267Z,100818.10
2018-10-03T13:14:51.230Z,100810.67
2018-10-03T13:17:20.265Z,100829.13
2018-10-03T13:19:49.570Z,100839.05
2018-10-03T13:22:18.324Z,100822.34
2018-10-03T13:24:47.162Z,100835.52
2018-10-03T13:27:16.042Z,100835.19
2018-10-03T13:29:46.345Z,100845.42
2018-10-03T13:32:15.916Z,100840.58
2018-10-03T13:34:46.102Z,100833.69
2018-10-03T13:37:15.557Z,100822.83
2018-10-03T13:39:44.631Z,100835.72
2018-10-03T13:42:14.660Z,100835.52
2018-10-03T13:44:46.199Z,100845.84
2018-10-03T13:47:15.122Z,100846.27
2018-10-03T13:49:44.243Z,100855.24
2018-10-03T13:52:13.579Z,100857.81
2018-10-03T13:54:43.318Z,100834.28
2018-10-03T13:57:14.161Z,100857.07
2018-10-03T13:59:45.082Z,100859.99
2018-10-03T14:02:14.943Z,100855.55
2018-10-03T14:04:44.968Z,100844.70
2018-10-03T14:07:14.805Z,100841.07
2018-10-03T14:09:44.152Z,100842.83
2018-10-03T14:12:13.271Z,100856.77
2018-10-03T14:14:46.759Z,100857.47
2018-10-03T14:17:15.929Z,100854.31
2018-10-03T14:19:44.783Z,100870.55
2018-10-03T14:22:13.720Z,100861.64
2018-10-03T14:24:42.601Z,100862.20
2018-10-03T14:27:11.444Z,100849.84
2018-10-03T14:29:40.298Z,100858.88
2018-10-03T14:32:09.144Z,100860.77
2018-10-03T14:34:37.905Z,100865.19
2018-10-03T14:37:12.695Z,100867.52
2018-10-03T14:39:41.556Z,100870.30
2018-10-03T14:42:10.487Z,100876.71
2018-10-03T14:44:39.367Z,100872.90
2018-10-03T14:47:08.290Z,100882.30
2018-10-03T14:49:38.060Z,100903.89
2018-10-03T14:52:07.260Z,100904.02
2018-10-03T14:54:36.154Z,100911.33
2018-10-03T14:57:05.209Z,100879.80
2018-10-03T14:59:34.246Z,100907.95
2018-10-03T15:02:03.335Z,100906.72
2018-10-03T15:04:32.240Z,100922.84
2018-10-03T15:07:01.164Z,100920.58
2018-10-03T15:09:30.224Z,100928.80
2018-10-03T15:11:59.164Z,100937.54
2018-10-03T15:14:28.045Z,100909.81
2018-10-03T15:16:57.139Z,100940.34
2018-10-03T15:19:26.218Z,100937.17
2018-10-03T15:21:55.335Z,100936.97
2018-10-03T15:24:24.451Z,100946.55
2018-10-03T15:26:53.456Z,100948.30
2018-10-03T15:29:23.724Z,100947.68
2018-10-03T15:31:52.986Z,100947.89
2018-10-03T15:34:21.861Z,100955.36
2018-10-03T15:36:50.706Z,100958.63
2018-10-03T15:39:19.681Z,100957.38
2018-10-03T15:41:48.462Z,100960.86
2018-10-03T15:44:17.520Z,100958.22
2018-10-03T15:46:46.463Z,100968.47
2018-10-03T15:49:15.868Z,100968.73
2018-10-03T15:51:44.713Z,100964.45
2018-10-03T15:54:15.963Z,100979.25
2018-10-03T15:56:44.875Z,100976.44
2018-10-03T15:59:13.734Z,100978.64
2018-10-03T16:01:43.117Z,100983.41
2018-10-03T16:04:12.242Z,100981.31
2018-10-03T16:06:41.079Z,100984.70
2018-10-03T16:09:10.557Z,100988.34
2018-10-03T16:11:39.882Z,100990.08
2018-10-03T16:14:08.743Z,101001.92
2018-10-03T16:16:37.608Z,101006.78
2018-10-03T16:19:06.607Z,101004.38
2018-10-03T16:21:36.041Z,101006.78
2018-10-03T16:24:05.067Z,101002.66
2018-10-03T16:26:34.369Z,101018.15
2018-10-03T16:29:03.866Z,101024.91
2018-10-03T16:31:32.862Z,101020.94
2018-10-03T16:34:02.058Z,101025.18
2018-10-03T16:36:30.926Z,101031.36
2018-10-03T16:39:00.210Z,101034.02
2018-10-03T16:41:29.963Z,101034.63
2018-10-03T16:43:58.789Z,101047.66
2018-10-03T16:46:28.417Z,101044.52
2018-10-03T16:48:58.256Z,101055.15
2018-10-03T16:51:27.065Z,101054.08
2018-10-03T16:53:55.927Z,101055.66
2018-10-03T16:56:24.947Z,101052.52
2018-10-03T16:58:53.946Z,101048.05
2018-10-03T17:01:23.594Z,101054.44
2018-10-03T17:03:53.108Z,101061.45
2018-10-03T17:06:22.349Z,101061.78
2018-10-03T17:08:51.280Z,101065.30
2018-10-03T17:11:20.392Z,101066.00
2018-10-03T17:14:35.900Z,101071.55
2018-10-03T17:17:05.198Z,101074.31
2018-10-03T17:19:34.349Z,101074.67
2018-10-03T17:22:03.842Z,101085.22
2018-10-03T17:24:34.161Z,101090.13
2018-10-03T17:27:02.964Z,101086.75
2018-10-03T17:29:31.686Z,101092.02
2018-10-03T17:32:03.260Z,101094.53
2018-10-03T17:34:33.292Z,101099.57
2018-10-03T17:37:02.787Z,101105.50
2018-10-03T17:39:33.069Z,101099.72
2018-10-03T17:42:04.560Z,101101.28
2018-10-03T17:44:33.576Z,101105.73
2018-10-03T17:47:04.483Z,101105.47
2018-10-03T17:49:34.926Z,101108.16
2018-10-03T17:52:04.068Z,101122.63
2018-10-03T17:54:33.088Z,101126.84
2018-10-03T17:57:03.672Z,101126.10
2018-10-03T17:59:32.709Z,101125.98
2018-10-03T18:02:05.220Z,101138.04
2018-10-03T18:04:36.222Z,101131.14
2018-10-03T18:07:06.271Z,101128.69
2018-10-03T18:09:37.045Z,101133.75
2018-10-03T18:12:15.848Z,101129.97
2018-10-03T18:14:51.021Z,101130.55
2018-10-03T18:17:20.907Z,101149.03
2018-10-03T18:19:52.002Z,101151.17
2018-10-03T18:22:26.147Z,101148.74
2018-10-03T18:24:57.445Z,101157.80
2018-10-03T18:30:45.381Z,101157.74
2018-10-03T18:33:23.154Z,101158.52
2018-10-03T18:35:53.458Z,101159.97
2018-10-03T18:38:24.171Z,101158.37
2018-10-03T18:40:57.158Z,101154.16
2018-10-03T18:43:28.482Z,101156.84
2018-10-03T18:46:02.345Z,101147.48
2018-10-03T18:48:33.310Z,101154.10
2018-10-03T18:51:03.691Z,101157.44
2018-10-03T18:53:33.730Z,101161.09
2018-10-03T18:56:03.324Z,101160.97
2018-10-03T18:58:33.855Z,101168.18
2018-10-03T19:01:06.566Z,101178.84
2018-10-03T19:03:36.397Z,101180.62
2018-10-03T19:06:07.396Z,101185.80
2018-10-03T19:08:37.791Z,101186.31
2018-10-03T19:11:07.510Z,101193.77
2018-10-03T19:13:36.527Z,101186.09
2018-10-03T19:16:05.658Z,101194.33
2018-10-03T19:18:35.037Z,101194.57
2018-10-03T19:21:04.803Z,101197.00
2018-10-03T19:23:33.942Z,101202.35
2018-10-03T19:26:03.117Z,101199.17
2018-10-03T19:28:32.596Z,101205.80
2018-10-03T19:31:01.516Z,101203.95
2018-10-03T19:33:34.211Z,101206.61
2018-10-03T19:36:04.527Z,101205.41
2018-10-03T19:38:34.092Z,101219.58
2018-10-03T19:41:03.462Z,101217.55
2018-10-03T19:43:39.325Z,101217.97
2018-10-03T19:46:09.121Z,101224.17
2018-10-03T19:48:38.471Z,101226.53
2018-10-03T19:51:07.966Z,101231.39
2018-10-03T19:53:38.988Z,101234.98
2018-10-03T19:56:09.049Z,101231.00
2018-10-03T19:58:39.682Z,101242.41
2018-10-03T20:01:08.611Z,101245.56
2018-10-03T20:03:37.552Z,101245.22
2018-10-03T20:06:07.411Z,101239.41
2018-10-03T20:08:36.541Z,101243.27
2018-10-03T20:11:05.509Z,101244.59
2018-10-03T20:13:34.861Z,101246.52
2018-10-03T20:16:04.002Z,101247.88
2018-10-03T20:18:32.820Z,101258.20
2018-10-03T20:21:02.157Z,101245.29
2018-10-03T20:23:31.312Z,101257.03
2018-10-03T20:26:00.189Z,101261.26
2018-10-03T20:28:29.996Z,101271.09
2018-10-03T20:31:02.448Z,101281.39
2018-10-03T20:33:32.105Z,101279.62
2018-10-03T20:36:02.725Z,101273.69
2018-10-03T20:47:04.616Z,101279.94
2018-10-03T20:49:33.573Z,101282.50
2018-10-03T20:52:03.157Z,101277.97
2018-10-03T20:54:33.980Z,101277.98
2018-10-03T20:57:03.863Z,101283.83
2018-10-03T20:59:33.706Z,101281.59
2018-10-03T21:02:02.923Z,101280.18
2018-10-03T21:04:32.975Z,101280.66
2018-10-03T21:07:01.821Z,101285.58
2018-10-03T21:09:31.405Z,101286.99
2018-10-03T21:12:00.396Z,101285.57
2018-10-03T21:14:29.270Z,101286.23
2018-10-03T21:16:58.558Z,101287.66
2018-10-03T21:19:28.297Z,101286.59
2018-10-03T21:21:58.669Z,101296.86
2018-10-03T21:24:27.996Z,101290.13
2018-10-03T21:26:57.337Z,101297.89
2018-10-03T21:29:26.182Z,101288.13
2018-10-03T21:31:55.134Z,101290.75
2018-10-03T21:34:24.041Z,101298.52
2018-10-03T21:36:52.900Z,101298.02
2018-10-03T21:39:23.504Z,101294.86
2018-10-03T21:41:53.502Z,101300.13
2018-10-03T21:44:23.602Z,101300.50
2018-10-03T21:46:54.048Z,101294.05
2018-10-03T21:49:24.918Z,101291.63
2018-10-03T21:51:54.113Z,101287.98
2018-10-03T21:54:23.591Z,101277.60
2018-10-03T21:56:54.874Z,101280.42
2018-10-03T21:59:23.812Z,101280.82
2018-10-03T22:02:02.553Z,101276.85
2018-10-03T22:04:31.520Z,101279.08
2018-10-03T22:07:01.049Z,101282.33
2018-10-03T22:09:34.122Z,101277.70
2018-10-03T22:12:02.919Z,101268.44
2018-10-03T22:14:32.242Z,101272.48
2018-10-03T22:17:17.390Z,101278.28
2018-10-03T22:19:46.792Z,101284.40
2018-10-03T22:22:15.836Z,101291.63
2018-10-03T22:24:44.728Z,101279.31
2018-10-03T22:27:13.675Z,101284.25
2018-10-03T22:29:44.688Z,101280.06
2018-10-03T22:32:13.553Z,101278.38
2018-10-03T22:34:42.590Z,101277.63
2018-10-03T22:37:12.100Z,101276.91
2018-10-03T22:39:41.696Z,101276.82
2018-10-03T22:42:11.065Z,101286.61
2018-10-03T22:44:40.008Z,101287.93
2018-10-03T22:47:08.952Z,101282.24
2018-10-03T22:49:37.747Z,101280.02
2018-10-03T22:52:07.092Z,101283.80
2018-10-03T22:54:35.900Z,101282.95
2018-10-03T22:57:05.515Z,101282.70
2018-10-03T22:59:34.332Z,101284.30
2018-10-03T23:02:03.270Z,101287.05
2018-10-03T23:04:32.040Z,101284.16
2018-10-03T23:07:00.930Z,101293.11
2018-10-03T23:09:30.755Z,101297.67
2018-10-03T23:11:59.676Z,101291.07
2018-10-03T23:14:28.583Z,101295.20
2018-10-03T23:16:57.386Z,101291.82
2018-10-03T23:19:26.233Z,101292.70
2018-10-03T23:21:55.303Z,101293.75
2018-10-03T23:24:24.119Z,101301.20
2018-10-03T23:26:53.006Z,101297.13
2018-10-03T23:29:22.962Z,101299.29
2018-10-03T23:31:51.842Z,101304.06
2018-10-03T23:34:20.684Z,101304.90
2018-10-03T23:36:51.316Z,101303.77
2018-10-03T23:39:20.122Z,101306.20
2018-10-03T23:41:48.916Z,101303.34
2018-10-03T23:44:17.678Z,101309.09
2018-10-03T23:46:46.880Z,101315.20
2018-10-03T23:49:15.656Z,101321.19
2018-10-03T23:51:45.742Z,101319.87
2018-10-03T23:54:14.660Z,101326.03
2018-10-03T23:56:44.922Z,101331.81
2018-10-03T23:59:13.978Z,101327.27
